Time;durP1;ratioP1;P1;durP2;ratioP2;P2;SDS_P1;SDS_P2;PMS_P1;PMS_P2;Temp;Humidity;BMP_temperature;BMP_pressure;BME280_temperature;BME280_humidity;BME280_pressure;Samples;Min_cycle;Max_cycle;Signal;HPM_P1;HPM_P2
2022/07/14 00:01:38;;;;;;;;;;;17.90;99.90;;;;;;5033068;28;19995;-78
2022/07/14 00:04:05;;;;;;;;;;;17.90;99.90;;;;;;5031819;28;19991;-77
2022/07/14 00:06:34;;;;;;;;;;;17.80;99.90;;;;;;5047968;28;19999;-77
2022/07/14 00:09:02;;;;;;;;;;;17.80;99.90;;;;;;5032298;28;19929;-78
2022/07/14 00:11:29;;;;;;;;;;;17.80;99.90;;;;;;5049762;28;19933;-78
2022/07/14 00:13:58;;;;;;;;;;;17.70;99.90;;;;;;5032028;28;19951;-77
2022/07/14 00:16:25;;;;;;;;;;;17.70;99.90;;;;;;5037924;28;19997;-78
2022/07/14 00:18:52;;;;;;;;;;;17.70;99.90;;;;;;5053321;28;19975;-78
2022/07/14 00:21:19;;;;;;;;;;;17.70;99.90;;;;;;5052129;28;19928;-79
2022/07/14 00:23:48;;;;;;;;;;;17.70;99.90;;;;;;5047250;28;20388;-79
2022/07/14 00:26:15;;;;;;;;;;;17.60;99.90;;;;;;5042298;28;19925;-79
2022/07/14 00:28:42;;;;;;;;;;;17.60;99.90;;;;;;5032966;28;20391;-79
2022/07/14 00:31:10;;;;;;;;;;;17.50;99.90;;;;;;5036823;28;19960;-79
2022/07/14 00:33:38;;;;;;;;;;;17.50;99.90;;;;;;5021378;28;20471;-79
2022/07/14 00:36:05;;;;;;;;;;;17.50;99.90;;;;;;5028227;28;19931;-79
2022/07/14 00:38:32;;;;;;;;;;;17.50;99.90;;;;;;5029694;28;19925;-79
2022/07/14 00:41:01;;;;;;;;;;;17.40;99.90;;;;;;5029278;28;20345;-79
2022/07/14 00:43:28;;;;;;;;;;;17.40;99.90;;;;;;5060845;28;19929;-79
2022/07/14 00:45:56;;;;;;;;;;;17.40;99.90;;;;;;5031659;28;19931;-79
2022/07/14 00:48:24;;;;;;;;;;;17.30;99.90;;;;;;5021357;28;20024;-78
2022/07/14 00:50:53;;;;;;;;;;;17.30;99.90;;;;;;5033416;28;19936;-79
2022/07/14 00:53:21;;;;;;;;;;;17.30;99.90;;;;;;5044775;28;19929;-79
2022/07/14 00:55:48;;;;;;;;;;;17.20;99.90;;;;;;5030412;28;19925;-79
2022/07/14 00:58:16;;;;;;;;;;;17.20;99.90;;;;;;5037827;28;19932;-79
2022/07/14 01:00:44;;;;;;;;;;;17.20;99.90;;;;;;5026828;28;19936;-79
2022/07/14 01:03:11;;;;;;;;;;;17.10;99.90;;;;;;5033119;28;19926;-79
2022/07/14 01:05:38;;;;;;;;;;;17.10;99.90;;;;;;5027826;28;20023;-78
2022/07/14 01:08:05;;;;;;;;;;;17.10;99.90;;;;;;5044065;28;20060;-79
2022/07/14 01:10:32;;;;;;;;;;;17.00;99.90;;;;;;5024158;28;19933;-78
2022/07/14 01:13:00;;;;;;;;;;;16.90;99.90;;;;;;5042911;28;19948;-78
2022/07/14 01:15:28;;;;;;;;;;;16.90;99.90;;;;;;5029526;28;20474;-77
2022/07/14 01:17:55;;;;;;;;;;;16.80;99.90;;;;;;5029852;28;19975;-78
2022/07/14 01:20:23;;;;;;;;;;;16.80;99.90;;;;;;5039937;28;19944;-78
2022/07/14 01:22:52;;;;;;;;;;;16.70;99.90;;;;;;5029903;28;19925;-78
2022/07/14 01:25:20;;;;;;;;;;;16.70;99.90;;;;;;5020636;28;19945;-79
2022/07/14 01:27:47;;;;;;;;;;;16.60;99.90;;;;;;5051378;28;19945;-79
2022/07/14 01:30:15;;;;;;;;;;;16.60;99.90;;;;;;5028596;28;19929;-79
2022/07/14 01:32:42;;;;;;;;;;;16.60;99.90;;;;;;5012898;28;20034;-78
2022/07/14 01:35:10;;;;;;;;;;;16.60;99.90;;;;;;5034610;28;19940;-79
2022/07/14 01:37:37;;;;;;;;;;;16.60;99.90;;;;;;5046491;28;19963;-79
2022/07/14 01:40:06;;;;;;;;;;;16.60;99.90;;;;;;5043004;28;19925;-79
2022/07/14 01:42:33;;;;;;;;;;;16.60;99.90;;;;;;5048940;28;20056;-79
2022/07/14 01:45:01;;;;;;;;;;;16.70;99.90;;;;;;5021883;28;19984;-80
2022/07/14 01:47:30;;;;;;;;;;;16.70;99.90;;;;;;5031524;28;19953;-79
2022/07/14 01:49:57;;;;;;;;;;;16.70;99.90;;;;;;5051729;28;20368;-79
2022/07/14 01:52:27;;;;;;;;;;;16.80;99.90;;;;;;5049902;28;20003;-79
2022/07/14 01:54:54;;;;;;;;;;;16.80;99.90;;;;;;5038588;28;19929;-79
2022/07/14 01:57:23;;;;;;;;;;;16.80;99.90;;;;;;5041760;28;19937;-79
2022/07/14 01:59:52;;;;;;;;;;;16.70;99.90;;;;;;5020579;28;19926;-80
2022/07/14 02:02:19;;;;;;;;;;;16.80;99.90;;;;;;5035285;28;19924;-80
2022/07/14 02:04:49;;;;;;;;;;;16.80;99.90;;;;;;5034878;28;19933;-79
2022/07/14 02:07:18;;;;;;;;;;;16.70;99.90;;;;;;5028976;28;20397;-78
2022/07/14 02:12:40;;;;;;;;;;;16.60;99.90;;;;;;5043384;28;20380;-79
2022/07/14 02:15:11;;;;;;;;;;;16.60;99.90;;;;;;5039146;28;19928;-78
2022/07/14 02:17:38;;;;;;;;;;;16.60;99.90;;;;;;5046795;28;19951;-80
2022/07/14 02:20:06;;;;;;;;;;;16.50;99.90;;;;;;5035771;28;20008;-78
2022/07/14 02:22:33;;;;;;;;;;;16.60;99.90;;;;;;5026700;28;19925;-78
2022/07/14 02:25:00;;;;;;;;;;;16.60;99.90;;;;;;5031490;28;19935;-77
2022/07/14 02:27:27;;;;;;;;;;;16.60;99.90;;;;;;5032165;28;20273;-78
2022/07/14 02:29:55;;;;;;;;;;;16.60;99.90;;;;;;5032997;28;19940;-78
2022/07/14 02:32:22;;;;;;;;;;;16.60;99.90;;;;;;5048869;28;19936;-79
2022/07/14 02:34:50;;;;;;;;;;;16.50;99.90;;;;;;5038854;28;19933;-77
2022/07/14 02:37:17;;;;;;;;;;;16.60;99.90;;;;;;5047394;28;19929;-76
2022/07/14 02:39:44;;;;;;;;;;;16.60;99.90;;;;;;5030848;28;19968;-75
2022/07/14 02:42:11;;;;;;;;;;;16.60;99.90;;;;;;5035411;28;19925;-76
2022/07/14 02:44:39;;;;;;;;;;;16.60;99.90;;;;;;5032177;28;19945;-76
2022/07/14 02:47:07;;;;;;;;;;;16.60;99.90;;;;;;5035161;28;19936;-75
2022/07/14 02:49:34;;;;;;;;;;;16.60;99.90;;;;;;5030643;28;20036;-76
2022/07/14 02:52:01;;;;;;;;;;;16.60;99.90;;;;;;5031207;28;19932;-77
2022/07/14 02:54:29;;;;;;;;;;;16.70;99.90;;;;;;5030235;28;19929;-77
2022/07/14 02:56:56;;;;;;;;;;;16.60;99.90;;;;;;5030871;28;19936;-77
2022/07/14 02:59:23;;;;;;;;;;;16.70;99.90;;;;;;5030782;28;19929;-76
2022/07/14 03:01:53;;;;;;;;;;;16.70;99.90;;;;;;5047085;28;20348;-76
2022/07/14 03:04:24;;;;;;;;;;;16.70;99.90;;;;;;5030974;28;19936;-77
2022/07/14 03:06:54;;;;;;;;;;;16.60;99.90;;;;;;5032365;28;19929;-78
2022/07/14 03:09:27;;;;;;;;;;;16.70;99.90;;;;;;5030500;28;20051;-78
2022/07/14 03:11:54;;;;;;;;;;;16.70;99.90;;;;;;5029506;28;19995;-78
2022/07/14 03:14:21;;;;;;;;;;;16.70;99.90;;;;;;5029506;28;19929;-77
2022/07/14 03:16:48;;;;;;;;;;;16.70;99.90;;;;;;5029677;28;19940;-77
2022/07/14 03:19:15;;;;;;;;;;;16.70;99.90;;;;;;5057143;28;19930;-80
2022/07/14 03:21:46;;;;;;;;;;;16.70;99.90;;;;;;5040825;28;20016;-77
2022/07/14 03:24:15;;;;;;;;;;;16.70;99.90;;;;;;5034655;28;19925;-79
2022/07/14 03:26:48;;;;;;;;;;;16.70;99.90;;;;;;5043123;28;19926;-78
2022/07/14 03:29:16;;;;;;;;;;;16.60;99.90;;;;;;5063538;28;20022;-77
2022/07/14 03:31:43;;;;;;;;;;;16.60;99.90;;;;;;5050900;28;20303;-79
2022/07/14 03:34:14;;;;;;;;;;;16.50;99.90;;;;;;5051218;28;19994;-78
2022/07/14 03:36:43;;;;;;;;;;;16.50;99.90;;;;;;5037761;28;19929;-79
2022/07/14 03:39:14;;;;;;;;;;;16.50;99.90;;;;;;5062253;28;19968;-78
2022/07/14 03:41:41;;;;;;;;;;;16.50;99.90;;;;;;5049494;28;19952;-78
2022/07/14 03:44:09;;;;;;;;;;;16.50;99.90;;;;;;5041683;28;20396;-78
2022/07/14 03:46:36;;;;;;;;;;;16.40;99.90;;;;;;5030569;28;19925;-78
2022/07/14 03:49:08;;;;;;;;;;;16.40;99.90;;;;;;5045730;28;19929;-78
2022/07/14 03:51:40;;;;;;;;;;;16.40;99.90;;;;;;5045410;28;20265;-78
2022/07/14 03:54:07;;;;;;;;;;;16.40;99.90;;;;;;5046568;28;19937;-78
2022/07/14 03:56:36;;;;;;;;;;;16.30;99.90;;;;;;5028364;28;19932;-78
2022/07/14 03:59:04;;;;;;;;;;;16.30;99.90;;;;;;5045250;28;19925;-78
2022/07/14 04:01:31;;;;;;;;;;;16.30;99.90;;;;;;5050209;22;20007;-78
2022/07/14 04:04:01;;;;;;;;;;;16.30;99.90;;;;;;5030737;28;20508;-77
2022/07/14 04:06:28;;;;;;;;;;;16.30;99.90;;;;;;5029857;28;20020;-77
2022/07/14 04:08:55;;;;;;;;;;;16.30;99.90;;;;;;5046665;28;20416;-79
2022/07/14 04:11:22;;;;;;;;;;;16.30;99.90;;;;;;5029236;28;20361;-76
2022/07/14 04:13:51;;;;;;;;;;;16.30;99.90;;;;;;5030489;28;19933;-77
2022/07/14 04:16:19;;;;;;;;;;;16.30;99.90;;;;;;5038681;28;19933;-77
2022/07/14 04:18:50;;;;;;;;;;;16.30;99.90;;;;;;5047263;28;20047;-78
2022/07/14 04:21:17;;;;;;;;;;;16.40;99.90;;;;;;5046642;28;20377;-77
2022/07/14 04:23:46;;;;;;;;;;;16.40;99.90;;;;;;5020846;28;19979;-76
2022/07/14 04:26:13;;;;;;;;;;;16.40;99.90;;;;;;5018722;28;20648;-77
2022/07/14 04:28:40;;;;;;;;;;;16.50;99.90;;;;;;5030466;28;19935;-77
2022/07/14 04:31:09;;;;;;;;;;;16.60;99.90;;;;;;5020208;28;19928;-76
2022/07/14 04:33:38;;;;;;;;;;;16.60;99.90;;;;;;5032188;28;20081;-76
2022/07/14 04:36:05;;;;;;;;;;;16.60;99.90;;;;;;5029202;28;19970;-77
2022/07/14 04:38:33;;;;;;;;;;;16.70;99.90;;;;;;5029076;28;20023;-77
2022/07/14 04:41:01;;;;;;;;;;;16.70;99.90;;;;;;5044757;28;19932;-76
2022/07/14 04:43:29;;;;;;;;;;;16.70;99.90;;;;;;5040983;28;20298;-76
2022/07/14 04:46:00;;;;;;;;;;;16.70;99.90;;;;;;5038522;28;20370;-77
2022/07/14 04:48:29;;;;;;;;;;;16.80;99.90;;;;;;5030234;28;20361;-77
2022/07/14 04:53:42;;;;;;;;;;;16.90;99.90;;;;;;5024796;28;19928;-76
2022/07/14 04:56:34;;;;;;;;;;;16.90;99.90;;;;;;5017876;28;19929;-78
2022/07/14 04:59:14;;;;;;;;;;;16.90;99.90;;;;;;5028043;28;20518;-77
2022/07/14 05:01:41;;;;;;;;;;;16.90;99.90;;;;;;5044829;28;19975;-77
2022/07/14 05:04:09;;;;;;;;;;;16.90;99.90;;;;;;5045756;28;19963;-77
2022/07/14 05:06:37;;;;;;;;;;;16.90;99.90;;;;;;5029785;28;19931;-76
2022/07/14 05:09:04;;;;;;;;;;;17.20;99.90;;;;;;5028838;28;19955;-77
2022/07/14 05:11:33;;;;;;;;;;;17.00;99.90;;;;;;5041423;28;19957;-77
2022/07/14 05:14:01;;;;;;;;;;;17.10;99.90;;;;;;5024849;28;20015;-77
2022/07/14 05:16:28;;;;;;;;;;;17.20;99.90;;;;;;5024207;28;19956;-76
2022/07/14 05:18:56;;;;;;;;;;;17.30;99.90;;;;;;5026930;28;19955;-77
2022/07/14 05:21:26;;;;;;;;;;;17.40;99.90;;;;;;5023958;28;20335;-77
2022/07/14 05:23:53;;;;;;;;;;;17.50;99.90;;;;;;5043195;28;20362;-77
2022/07/14 05:26:20;;;;;;;;;;;17.60;99.90;;;;;;5020669;28;20420;-77
2022/07/14 05:28:48;;;;;;;;;;;17.80;99.90;;;;;;5024637;28;20086;-77
2022/07/14 05:31:15;;;;;;;;;;;18.00;99.90;;;;;;5041242;22;19932;-75
2022/07/14 05:33:48;;;;;;;;;;;18.10;99.90;;;;;;5064644;28;20039;-76
2022/07/14 05:36:15;;;;;;;;;;;18.30;99.90;;;;;;5068236;28;19939;-76
2022/07/14 05:38:44;;;;;;;;;;;18.60;99.90;;;;;;5065475;28;19928;-75
2022/07/14 05:41:11;;;;;;;;;;;19.80;99.90;;;;;;5064615;28;19969;-75
2022/07/14 05:43:38;;;;;;;;;;;21.40;99.90;;;;;;5081436;28;20094;-76
2022/07/14 05:46:06;;;;;;;;;;;22.80;99.90;;;;;;5084526;28;19924;-76
2022/07/14 05:48:33;;;;;;;;;;;24.30;99.90;;;;;;5080847;28;19954;-76
2022/07/14 05:51:03;;;;;;;;;;;25.70;99.90;;;;;;5064492;28;20190;-76
2022/07/14 05:53:30;;;;;;;;;;;27.00;99.90;;;;;;5060561;28;20655;-76
2022/07/14 05:55:58;;;;;;;;;;;28.50;99.90;;;;;;5079038;28;19928;-76
2022/07/14 05:58:25;;;;;;;;;;;30.00;99.90;;;;;;5083929;28;20415;-76
2022/07/14 06:00:52;;;;;;;;;;;30.50;99.90;;;;;;5067986;28;19928;-76
2022/07/14 06:03:19;;;;;;;;;;;30.60;99.90;;;;;;5064879;28;19928;-76
2022/07/14 06:05:47;;;;;;;;;;;31.10;99.90;;;;;;5079082;28;19924;-76
2022/07/14 06:08:14;;;;;;;;;;;32.10;99.90;;;;;;5088263;28;19932;-76
2022/07/14 06:10:42;;;;;;;;;;;33.20;99.90;;;;;;5068013;28;19934;-76
2022/07/14 06:13:11;;;;;;;;;;;32.70;99.90;;;;;;5068340;28;19936;-76
2022/07/14 06:15:37;;;;;;;;;;;34.00;99.90;;;;;;5089991;28;19943;-76
2022/07/14 06:18:05;;;;;;;;;;;34.80;99.80;;;;;;5082140;28;19928;-76
2022/07/14 06:20:33;;;;;;;;;;;35.70;96.20;;;;;;5086549;28;19928;-77
2022/07/14 06:23:00;;;;;;;;;;;35.80;95.90;;;;;;5075460;28;19924;-77
2022/07/14 06:25:27;;;;;;;;;;;37.20;94.30;;;;;;5088521;28;19963;-77
2022/07/14 06:27:54;;;;;;;;;;;37.30;92.50;;;;;;5090082;28;19935;-77
2022/07/14 06:30:22;;;;;;;;;;;37.20;87.20;;;;;;5089118;28;19966;-75
2022/07/14 06:32:49;;;;;;;;;;;35.70;84.00;;;;;;5084837;28;19929;-75
2022/07/14 06:35:18;;;;;;;;;;;33.90;84.50;;;;;;5086481;28;19974;-75
2022/07/14 06:37:44;;;;;;;;;;;32.20;86.30;;;;;;5086773;28;19935;-76
2022/07/14 06:40:12;;;;;;;;;;;30.80;88.50;;;;;;5064019;28;21643;-75
2022/07/14 06:42:44;;;;;;;;;;;29.90;90.40;;;;;;5077568;28;19951;-75
2022/07/14 06:45:14;;;;;;;;;;;29.30;91.30;;;;;;5071244;28;19932;-75
2022/07/14 06:47:43;;;;;;;;;;;29.10;92.00;;;;;;5082795;28;19967;-75
2022/07/14 06:50:09;;;;;;;;;;;29.10;92.20;;;;;;5082558;28;19955;-75
2022/07/14 06:52:36;;;;;;;;;;;28.90;92.30;;;;;;5069302;28;19943;-75
2022/07/14 06:55:04;;;;;;;;;;;28.60;92.40;;;;;;5087656;28;19931;-75
2022/07/14 06:57:30;;;;;;;;;;;28.40;92.80;;;;;;5083115;28;19928;-76
2022/07/14 06:59:57;;;;;;;;;;;27.90;92.30;;;;;;5075639;28;20023;-75
2022/07/14 07:02:24;;;;;;;;;;;26.50;92.70;;;;;;5085537;28;19928;-75
2022/07/14 07:07:33;;;;;;;;;;;25.70;93.90;;;;;;5085365;28;19924;-75
2022/07/14 07:10:00;;;;;;;;;;;25.10;94.90;;;;;;5086402;28;19928;-75
2022/07/14 07:12:28;;;;;;;;;;;24.70;95.60;;;;;;5092099;28;19928;-75
2022/07/14 07:14:55;;;;;;;;;;;24.20;96.10;;;;;;5082625;28;20265;-75
2022/07/14 07:17:21;;;;;;;;;;;23.10;96.30;;;;;;5076959;28;20293;-76
2022/07/14 07:19:48;;;;;;;;;;;23.10;96.90;;;;;;5079528;28;19928;-76
2022/07/14 07:22:16;;;;;;;;;;;24.10;97.60;;;;;;5068384;28;20416;-75
2022/07/14 07:24:43;;;;;;;;;;;24.20;98.00;;;;;;5084416;28;19954;-75
2022/07/14 07:27:09;;;;;;;;;;;24.10;97.70;;;;;;5085371;28;19955;-76
2022/07/14 07:29:37;;;;;;;;;;;24.10;97.90;;;;;;5085406;28;19984;-75
2022/07/14 07:32:03;;;;;;;;;;;23.90;97.60;;;;;;5081560;28;20294;-75
2022/07/14 07:34:31;;;;;;;;;;;23.90;98.50;;;;;;5099187;28;19924;-76
2022/07/14 07:36:57;;;;;;;;;;;23.90;98.90;;;;;;5096907;28;19947;-76
2022/07/14 07:39:25;;;;;;;;;;;24.20;99.20;;;;;;5074471;28;20003;-76
2022/07/14 07:41:55;;;;;;;;;;;24.30;98.60;;;;;;5085045;28;19939;-76
2022/07/14 07:44:22;;;;;;;;;;;24.40;98.70;;;;;;5083630;28;19928;-76
2022/07/14 07:46:48;;;;;;;;;;;24.60;99.00;;;;;;5075633;28;20708;-76
2022/07/14 07:49:15;;;;;;;;;;;24.90;99.10;;;;;;5076948;28;19928;-76
2022/07/14 07:51:42;;;;;;;;;;;25.60;99.50;;;;;;5076631;28;19927;-76
2022/07/14 07:54:09;;;;;;;;;;;26.80;99.40;;;;;;5077592;28;19930;-76
2022/07/14 07:56:37;;;;;;;;;;;28.20;98.80;;;;;;5077844;28;19935;-76
2022/07/14 07:59:04;;;;;;;;;;;29.60;98.10;;;;;;5063614;28;19939;-76
2022/07/14 08:01:30;;;;;;;;;;;30.70;96.20;;;;;;5072020;28;20068;-76
2022/07/14 08:03:57;;;;;;;;;;;31.60;94.10;;;;;;5083199;28;19924;-75
2022/07/14 08:06:24;;;;;;;;;;;32.60;92.60;;;;;;5078424;28;19932;-76
2022/07/14 08:08:50;;;;;;;;;;;33.40;91.30;;;;;;5083706;28;19924;-75
2022/07/14 08:11:17;;;;;;;;;;;33.90;78.80;;;;;;5083172;28;19936;-75
2022/07/14 08:13:45;;;;;;;;;;;33.80;75.60;;;;;;5085659;28;19928;-76
2022/07/14 08:16:12;;;;;;;;;;;33.80;75.30;;;;;;5075502;28;19968;-75
2022/07/14 08:18:39;;;;;;;;;;;33.90;77.50;;;;;;5080017;28;19928;-75
2022/07/14 08:21:06;;;;;;;;;;;34.30;76.60;;;;;;5080573;28;20247;-75
2022/07/14 08:23:32;;;;;;;;;;;34.60;76.00;;;;;;5062855;28;20432;-76
2022/07/14 08:25:59;;;;;;;;;;;35.00;73.50;;;;;;5065433;28;19955;-75
2022/07/14 08:28:26;;;;;;;;;;;35.30;72.20;;;;;;5073266;28;19940;-75
2022/07/14 08:33:38;;;;;;;;;;;35.10;70.50;;;;;;5237864;22;20502;-76
2022/07/14 08:36:05;;;;;;;;;;;34.90;69.40;;;;;;5062331;28;20305;-76
2022/07/14 08:38:31;;;;;;;;;;;35.00;69.10;;;;;;5051028;28;19946;-76
2022/07/14 08:40:58;;;;;;;;;;;35.20;67.00;;;;;;5053818;28;20602;-76
2022/07/14 08:43:26;;;;;;;;;;;35.20;65.80;;;;;;5053010;28;20278;-76
2022/07/14 08:45:53;;;;;;;;;;;34.60;64.00;;;;;;5049577;28;19933;-75
2022/07/14 08:48:19;;;;;;;;;;;33.80;62.30;;;;;;5047342;28;19932;-75
2022/07/14 08:50:48;;;;;;;;;;;32.70;66.80;;;;;;5050978;28;20906;-75
2022/07/14 08:53:15;;;;;;;;;;;32.70;66.10;;;;;;5062349;28;19935;-75
2022/07/14 08:55:41;;;;;;;;;;;32.90;67.50;;;;;;5071953;28;19936;-75
2022/07/14 08:58:08;;;;;;;;;;;33.40;66.60;;;;;;5066720;28;19928;-75
2022/07/14 09:00:35;;;;;;;;;;;33.90;62.00;;;;;;5058318;28;20302;-75
2022/07/14 09:03:02;;;;;;;;;;;33.90;62.30;;;;;;5049951;28;19933;-76
2022/07/14 09:05:28;;;;;;;;;;;33.40;63.30;;;;;;5055332;28;20284;-76
2022/07/14 09:07:57;;;;;;;;;;;33.40;62.30;;;;;;5062257;28;19932;-76
2022/07/14 09:10:25;;;;;;;;;;;33.50;61.30;;;;;;5055492;28;19939;-76
2022/07/14 09:12:52;;;;;;;;;;;33.50;59.80;;;;;;5072952;28;19929;-75
2022/07/14 09:18:12;;;;;;;;;;;33.80;60.80;;;;;;5052779;28;19933;-75
2022/07/14 09:20:39;;;;;;;;;;;34.80;59.90;;;;;;5071162;28;19947;-76
2022/07/14 09:23:07;;;;;;;;;;;33.60;59.30;;;;;;5071873;28;19925;-76
2022/07/14 09:25:35;;;;;;;;;;;33.00;59.60;;;;;;5055656;28;19928;-75
2022/07/14 09:28:02;;;;;;;;;;;31.50;58.40;;;;;;5064405;28;20019;-77
2022/07/14 09:30:29;;;;;;;;;;;30.90;60.10;;;;;;5061266;28;19928;-78
2022/07/14 09:32:57;;;;;;;;;;;30.20;62.60;;;;;;5063379;28;20023;-76
2022/07/14 09:35:26;;;;;;;;;;;30.00;64.50;;;;;;5066953;28;19944;-77
2022/07/14 09:37:54;;;;;;;;;;;30.00;62.60;;;;;;5071226;28;20005;-77
2022/07/14 09:40:25;;;;;;;;;;;29.90;62.60;;;;;;5072790;28;19929;-77
2022/07/14 09:42:57;;;;;;;;;;;29.80;62.50;;;;;;5054719;28;20411;-77
2022/07/14 09:45:24;;;;;;;;;;;29.50;65.00;;;;;;5056568;28;19932;-77
2022/07/14 09:47:52;;;;;;;;;;;29.40;65.60;;;;;;5053056;28;19929;-78
2022/07/14 09:50:31;;;;;;;;;;;29.20;65.50;;;;;;5055637;28;19928;-77
2022/07/14 09:52:58;;;;;;;;;;;29.30;66.30;;;;;;5055466;28;19929;-77
2022/07/14 09:55:26;;;;;;;;;;;29.70;65.80;;;;;;5057811;28;19974;-77
2022/07/14 09:57:53;;;;;;;;;;;29.70;64.90;;;;;;5057038;28;20405;-77
2022/07/14 10:00:20;;;;;;;;;;;29.60;63.50;;;;;;5061110;28;19928;-78
2022/07/14 10:02:48;;;;;;;;;;;29.50;64.50;;;;;;5072317;28;19939;-77
2022/07/14 10:05:15;;;;;;;;;;;29.30;63.80;;;;;;5052632;28;19935;-78
2022/07/14 10:07:42;;;;;;;;;;;28.90;63.10;;;;;;5056985;28;19932;-78
2022/07/14 10:10:09;;;;;;;;;;;28.50;63.60;;;;;;5055641;28;19932;-77
2022/07/14 10:12:38;;;;;;;;;;;28.00;64.10;;;;;;5066065;28;19955;-77
2022/07/14 10:15:06;;;;;;;;;;;27.70;65.50;;;;;;5086607;28;20308;-77
2022/07/14 10:17:35;;;;;;;;;;;27.20;64.80;;;;;;5077665;28;20321;-77
2022/07/14 10:20:03;;;;;;;;;;;26.60;64.80;;;;;;5082759;28;20023;-78
2022/07/14 10:22:30;;;;;;;;;;;26.20;66.40;;;;;;5064018;28;19935;-77
2022/07/14 10:24:58;;;;;;;;;;;25.80;66.90;;;;;;5065138;28;19932;-77
2022/07/14 10:27:26;;;;;;;;;;;25.50;67.30;;;;;;5057792;28;19928;-78
2022/07/14 10:29:56;;;;;;;;;;;25.30;68.70;;;;;;5060970;28;19932;-77
2022/07/14 10:32:30;;;;;;;;;;;25.30;68.90;;;;;;5058173;28;20027;-77
2022/07/14 10:35:01;;;;;;;;;;;25.20;69.20;;;;;;5057539;28;19932;-77
2022/07/14 10:37:33;;;;;;;;;;;25.20;70.00;;;;;;5065071;28;19933;-77
2022/07/14 10:40:05;;;;;;;;;;;25.30;70.30;;;;;;5057105;28;19932;-77
2022/07/14 10:42:35;;;;;;;;;;;25.40;69.90;;;;;;5052844;28;19928;-78
2022/07/14 10:45:04;;;;;;;;;;;25.50;69.80;;;;;;5056885;28;19939;-79
2022/07/14 10:47:43;;;;;;;;;;;25.50;70.40;;;;;;5057678;28;19935;-78
2022/07/14 10:50:12;;;;;;;;;;;25.50;71.70;;;;;;5058784;28;19963;-78
2022/07/14 10:52:40;;;;;;;;;;;25.60;69.90;;;;;;5058733;28;19928;-78
2022/07/14 10:55:13;;;;;;;;;;;25.60;70.80;;;;;;5057893;28;19929;-78
2022/07/14 10:57:40;;;;;;;;;;;25.50;71.30;;;;;;5062699;28;19935;-78
2022/07/14 11:00:28;;;;;;;;;;;25.60;71.30;;;;;;5064276;28;21048;-78
2022/07/14 11:03:15;;;;;;;;;;;25.60;71.90;;;;;;5054768;28;20028;-78
2022/07/14 11:05:57;;;;;;;;;;;25.60;70.50;;;;;;5057127;28;19929;-78
2022/07/14 11:08:23;;;;;;;;;;;25.60;71.20;;;;;;5058571;28;20023;-78
2022/07/14 11:10:55;;;;;;;;;;;25.50;70.60;;;;;;5067938;28;19929;-78
2022/07/14 11:13:22;;;;;;;;;;;25.60;71.50;;;;;;5081846;28;19950;-78
2022/07/14 11:15:53;;;;;;;;;;;25.60;71.30;;;;;;5074690;28;19954;-77
2022/07/14 11:18:34;;;;;;;;;;;25.70;70.90;;;;;;5062377;28;19940;-78
2022/07/14 11:21:05;;;;;;;;;;;25.80;70.80;;;;;;5060337;28;19933;-78
2022/07/14 11:23:35;;;;;;;;;;;25.80;70.40;;;;;;5062182;28;20103;-78
2022/07/14 11:26:03;;;;;;;;;;;25.80;71.20;;;;;;5065248;28;19968;-77
2022/07/14 11:28:40;;;;;;;;;;;25.90;71.50;;;;;;5069900;28;20209;-76
2022/07/14 11:31:12;;;;;;;;;;;26.00;71.40;;;;;;5060301;28;19932;-76
2022/07/14 11:36:17;;;;;;;;;;;26.10;71.10;;;;;;5064887;28;19933;-77
2022/07/14 11:36:28;;;;;;;;;;;26.20;70.80;;;;;;5060606;28;20012;-76
2022/07/14 11:39:10;;;;;;;;;;;26.30;70.00;;;;;;5055807;28;19936;-76
2022/07/14 11:41:46;;;;;;;;;;;26.40;69.90;;;;;;5045161;28;19939;-76
2022/07/14 11:44:28;;;;;;;;;;;26.50;69.30;;;;;;5064555;28;19932;-76
2022/07/14 11:46:59;;;;;;;;;;;26.70;69.80;;;;;;5065606;28;19952;-77
2022/07/14 11:49:26;;;;;;;;;;;26.90;69.40;;;;;;5086006;28;19924;-77
2022/07/14 11:51:54;;;;;;;;;;;27.10;68.90;;;;;;5089392;28;19933;-77
2022/07/14 11:54:21;;;;;;;;;;;27.30;68.90;;;;;;5070733;28;19928;-77
2022/07/14 11:56:48;;;;;;;;;;;27.40;68.40;;;;;;5068532;28;20293;-77
2022/07/14 11:59:17;;;;;;;;;;;27.60;67.90;;;;;;5068860;28;20010;-77
2022/07/14 12:01:44;;;;;;;;;;;27.80;67.20;;;;;;5065951;28;19928;-77
2022/07/14 12:04:14;;;;;;;;;;;27.80;65.00;;;;;;5068047;28;20266;-77
2022/07/14 12:06:43;;;;;;;;;;;27.90;65.70;;;;;;5076036;28;21010;-76
2022/07/14 12:09:10;;;;;;;;;;;28.00;65.40;;;;;;5069114;28;20326;-76
2022/07/14 12:11:37;;;;;;;;;;;28.20;66.00;;;;;;5068469;28;19976;-76
2022/07/14 12:14:06;;;;;;;;;;;28.40;65.10;;;;;;5063661;28;20015;-77
2022/07/14 12:16:42;;;;;;;;;;;28.60;64.40;;;;;;5077522;28;19981;-77
2022/07/14 12:19:09;;;;;;;;;;;28.80;64.70;;;;;;5069747;28;20027;-77
2022/07/14 12:21:37;;;;;;;;;;;29.10;62.70;;;;;;5063501;28;19928;-77
2022/07/14 12:24:05;;;;;;;;;;;29.20;62.70;;;;;;5069772;28;19931;-77
2022/07/14 12:26:32;;;;;;;;;;;29.20;62.80;;;;;;5069415;28;20232;-76
2022/07/14 12:29:00;;;;;;;;;;;29.70;64.70;;;;;;5068633;28;19998;-76
2022/07/14 12:31:27;;;;;;;;;;;29.80;63.40;;;;;;5066010;28;19929;-77
2022/07/14 12:33:54;;;;;;;;;;;29.90;63.50;;;;;;5072253;28;19936;-77
2022/07/14 12:36:22;;;;;;;;;;;30.00;62.90;;;;;;5067664;28;20499;-77
2022/07/14 12:38:50;;;;;;;;;;;30.10;63.30;;;;;;5070317;28;20076;-77
2022/07/14 12:41:20;;;;;;;;;;;30.20;61.90;;;;;;5069773;28;19963;-77
2022/07/14 12:43:47;;;;;;;;;;;30.20;61.70;;;;;;5067585;28;20285;-77
2022/07/14 12:46:14;;;;;;;;;;;30.10;61.00;;;;;;5063791;28;20005;-77
2022/07/14 12:48:56;;;;;;;;;;;30.00;62.30;;;;;;5069393;28;20640;-77
2022/07/14 12:51:24;;;;;;;;;;;29.90;62.10;;;;;;5070330;28;19939;-77
2022/07/14 12:54:03;;;;;;;;;;;29.70;61.80;;;;;;5069564;28;19924;-77
2022/07/14 12:56:31;;;;;;;;;;;29.70;62.80;;;;;;5060422;28;19928;-77
2022/07/14 12:58:59;;;;;;;;;;;29.90;63.30;;;;;;5074773;28;19928;-77
2022/07/14 13:01:26;;;;;;;;;;;30.00;63.00;;;;;;5064510;28;19982;-77
2022/07/14 13:03:57;;;;;;;;;;;30.00;62.70;;;;;;5068249;28;19928;-77
2022/07/14 13:06:24;;;;;;;;;;;30.00;62.90;;;;;;5069687;28;19939;-77
2022/07/14 13:08:51;;;;;;;;;;;30.00;61.40;;;;;;5068438;28;19928;-77
2022/07/14 13:11:19;;;;;;;;;;;28.10;60.70;;;;;;5057926;28;19928;-77
2022/07/14 13:13:48;;;;;;;;;;;29.70;62.80;;;;;;5062469;28;19929;-77
2022/07/14 13:16:22;;;;;;;;;;;29.60;62.00;;;;;;5071046;28;20325;-77
2022/07/14 13:19:02;;;;;;;;;;;28.20;61.30;;;;;;5072772;28;19928;-78
2022/07/14 13:21:48;;;;;;;;;;;29.40;62.70;;;;;;5076824;28;19928;-77
2022/07/14 13:24:17;;;;;;;;;;;29.40;63.00;;;;;;5082705;28;20120;-77
2022/07/14 13:26:45;;;;;;;;;;;29.70;62.60;;;;;;5066223;28;20447;-78
2022/07/14 13:29:11;;;;;;;;;;;29.70;62.40;;;;;;5067643;28;19935;-78
2022/07/14 13:31:38;;;;;;;;;;;29.80;61.90;;;;;;5612303;22;20162;-78
2022/07/14 13:34:05;;;;;;;;;;;29.70;61.70;;;;;;5088101;28;19928;-78
2022/07/14 13:36:32;;;;;;;;;;;29.60;61.90;;;;;;5089776;28;19939;-78
2022/07/14 13:38:59;;;;;;;;;;;29.50;62.90;;;;;;5088389;28;19975;-78
2022/07/14 13:41:26;;;;;;;;;;;29.10;63.40;;;;;;5096422;28;19964;-77
2022/07/14 13:43:58;;;;;;;;;;;29.10;63.70;;;;;;5075310;28;19924;-76
2022/07/14 13:46:29;;;;;;;;;;;29.00;63.10;;;;;;5076326;22;19928;-80
2022/07/14 13:48:56;;;;;;;;;;;29.50;64.20;;;;;;5076455;28;19987;-81
2022/07/14 13:54:12;;;;;;;;;;;29.00;64.00;;;;;;5058025;28;19927;-81
2022/07/14 13:56:40;;;;;;;;;;;29.10;63.90;;;;;;5081257;28;19955;-81
2022/07/14 13:59:09;;;;;;;;;;;29.20;64.00;;;;;;5079797;28;19936;-81
2022/07/14 14:01:37;;;;;;;;;;;29.30;62.30;;;;;;5054239;28;19932;-81
2022/07/14 14:04:04;;;;;;;;;;;29.20;63.50;;;;;;5055175;28;19929;-81
2022/07/14 14:06:31;;;;;;;;;;;29.20;63.60;;;;;;5056237;28;19979;-80
2022/07/14 14:09:02;;;;;;;;;;;29.30;64.60;;;;;;5056187;28;19979;-82
2022/07/14 14:11:29;;;;;;;;;;;29.70;64.00;;;;;;5050817;28;20533;-79
2022/07/14 14:13:56;;;;;;;;;;;30.00;64.30;;;;;;5056657;28;19929;-79
2022/07/14 14:16:25;;;;;;;;;;;30.50;63.80;;;;;;5051633;28;19928;-82
2022/07/14 14:18:54;;;;;;;;;;;30.90;63.10;;;;;;5055568;28;20464;-81
2022/07/14 14:21:21;;;;;;;;;;;30.80;61.50;;;;;;5074920;28;19969;-79
2022/07/14 14:23:48;;;;;;;;;;;30.60;61.80;;;;;;5084209;28;20468;-80
2022/07/14 14:26:15;;;;;;;;;;;30.50;62.40;;;;;;5077778;28;19924;-81
2022/07/14 14:28:43;;;;;;;;;;;30.10;62.10;;;;;;5074037;28;19984;-79
2022/07/14 14:31:13;;;;;;;;;;;29.90;61.90;;;;;;5069236;28;19928;-81
2022/07/14 14:33:41;;;;;;;;;;;29.70;62.00;;;;;;5073566;28;19937;-81
2022/07/14 14:36:08;;;;;;;;;;;29.20;62.70;;;;;;5059497;28;19936;-81
2022/07/14 14:38:37;;;;;;;;;;;28.70;63.40;;;;;;5081401;28;20336;-81
2022/07/14 14:41:04;;;;;;;;;;;28.40;63.80;;;;;;5058795;28;19939;-80